sensor_id;sensor_type;location;lat;lon;timestamp;pressure;altitude;pressure_sealevel;temperature;humidity
84746;BME280;74975;51.922;6.480;2024-01-15T00:00:34;100170.81;;;1.11;97.46
84746;BME280;74975;51.922;6.480;2024-01-15T00:03:13;100170.63;;;1.04;97.65
84746;BME280;74975;51.922;6.480;2024-01-15T00:05:44;100164.94;;;1.01;97.66
84746;BME280;74975;51.922;6.480;2024-01-15T00:08:16;100160.69;;;0.92;98.08
84746;BME280;74975;51.922;6.480;2024-01-15T00:10:47;100150.28;;;0.84;97.34
84746;BME280;74975;51.922;6.480;2024-01-15T00:13:22;100155.41;;;0.76;97.36
84746;BME280;74975;51.922;6.480;2024-01-15T00:15:54;100151.34;;;0.73;97.75
84746;BME280;74975;51.922;6.480;2024-01-15T00:18:25;100144.38;;;0.65;97.64
84746;BME280;74975;51.922;6.480;2024-01-15T00:21:00;100150.31;;;0.58;97.91
84746;BME280;74975;51.922;6.480;2024-01-15T00:23:32;100143.91;;;0.44;98.05
84746;BME280;74975;51.922;6.480;2024-01-15T00:26:03;100140.81;;;0.41;97.92
84746;BME280;74975;51.922;6.480;2024-01-15T00:28:41;100142.94;;;0.45;97.55
84746;BME280;74975;51.922;6.480;2024-01-15T00:31:13;100146.00;;;0.41;98.28
84746;BME280;74975;51.922;6.480;2024-01-15T00:33:47;100148.81;;;0.30;98.36
84746;BME280;74975;51.922;6.480;2024-01-15T00:36:23;100138.63;;;0.28;98.42
84746;BME280;74975;51.922;6.480;2024-01-15T00:38:54;100135.97;;;0.20;97.88
84746;BME280;74975;51.922;6.480;2024-01-15T00:41:26;100127.63;;;0.26;98.69
84746;BME280;74975;51.922;6.480;2024-01-15T00:44:01;100136.03;;;0.28;98.32
84746;BME280;74975;51.922;6.480;2024-01-15T00:46:42;100125.69;;;0.28;97.78
84746;BME280;74975;51.922;6.480;2024-01-15T00:49:14;100123.75;;;0.30;98.04
84746;BME280;74975;51.922;6.480;2024-01-15T00:51:49;100118.38;;;0.24;97.84
84746;BME280;74975;51.922;6.480;2024-01-15T00:54:24;100117.28;;;0.26;98.26
84746;BME280;74975;51.922;6.480;2024-01-15T00:56:55;100110.25;;;0.19;97.88
84746;BME280;74975;51.922;6.480;2024-01-15T00:59:28;100111.09;;;0.19;98.15
84746;BME280;74975;51.922;6.480;2024-01-15T01:02:03;100107.88;;;0.25;97.79
84746;BME280;74975;51.922;6.480;2024-01-15T01:04:42;100113.66;;;0.19;97.18
84746;BME280;74975;51.922;6.480;2024-01-15T01:07:14;100106.84;;;0.18;97.66
84746;BME280;74975;51.922;6.480;2024-01-15T01:09:45;100108.13;;;0.14;97.89
84746;BME280;74975;51.922;6.480;2024-01-15T01:12:22;100091.78;;;0.14;98.03
84746;BME280;74975;51.922;6.480;2024-01-15T01:14:56;100092.63;;;0.14;97.54
84746;BME280;74975;51.922;6.480;2024-01-15T01:17:34;100085.16;;;0.11;97.59
84746;BME280;74975;51.922;6.480;2024-01-15T01:20:06;100090.31;;;0.11;97.45
84746;BME280;74975;51.922;6.480;2024-01-15T01:22:39;100082.84;;;0.08;97.10
84746;BME280;74975;51.922;6.480;2024-01-15T01:25:14;100086.41;;;0.07;97.37
84746;BME280;74975;51.922;6.480;2024-01-15T01:27:46;100092.25;;;0.09;97.78
84746;BME280;74975;51.922;6.480;2024-01-15T01:30:17;100079.03;;;0.12;97.89
84746;BME280;74975;51.922;6.480;2024-01-15T01:32:49;100084.84;;;0.14;97.11
84746;BME280;74975;51.922;6.480;2024-01-15T01:35:20;100080.47;;;0.15;97.72
84746;BME280;74975;51.922;6.480;2024-01-15T01:37:51;100083.06;;;0.15;97.19
84746;BME280;74975;51.922;6.480;2024-01-15T01:40:27;100081.69;;;0.03;96.72
84746;BME280;74975;51.922;6.480;2024-01-15T01:43:03;100083.59;;;0.00;97.30
84746;BME280;74975;51.922;6.480;2024-01-15T01:45:38;100090.34;;;-0.07;97.46
84746;BME280;74975;51.922;6.480;2024-01-15T01:48:13;100090.63;;;-0.10;97.70
84746;BME280;74975;51.922;6.480;2024-01-15T01:50:46;100078.81;;;-0.12;97.53
84746;BME280;74975;51.922;6.480;2024-01-15T01:53:28;100083.41;;;-0.06;97.31
84746;BME280;74975;51.922;6.480;2024-01-15T01:56:08;100084.06;;;-0.04;97.62
84746;BME280;74975;51.922;6.480;2024-01-15T01:58:49;100087.31;;;-0.02;97.58
84746;BME280;74975;51.922;6.480;2024-01-15T02:01:21;100097.44;;;-0.09;98.05
84746;BME280;74975;51.922;6.480;2024-01-15T02:03:55;100100.03;;;-0.09;97.92
84746;BME280;74975;51.922;6.480;2024-01-15T02:06:31;100095.53;;;-0.07;97.83
84746;BME280;74975;51.922;6.480;2024-01-15T02:09:12;100093.75;;;-0.06;97.89
84746;BME280;74975;51.922;6.480;2024-01-15T02:11:46;100098.41;;;-0.10;97.92
84746;BME280;74975;51.922;6.480;2024-01-15T02:14:20;100096.94;;;-0.12;98.30
84746;BME280;74975;51.922;6.480;2024-01-15T02:16:59;100101.50;;;-0.06;97.51
84746;BME280;74975;51.922;6.480;2024-01-15T02:19:35;100095.97;;;-0.11;98.01
84746;BME280;74975;51.922;6.480;2024-01-15T02:22:08;100099.38;;;-0.11;97.76
84746;BME280;74975;51.922;6.480;2024-01-15T02:24:39;100092.94;;;-0.07;98.02
84746;BME280;74975;51.922;6.480;2024-01-15T02:27:12;100096.94;;;-0.12;97.56
84746;BME280;74975;51.922;6.480;2024-01-15T02:29:49;100093.19;;;-0.18;97.72
84746;BME280;74975;51.922;6.480;2024-01-15T02:32:20;100092.66;;;-0.21;97.33
84746;BME280;74975;51.922;6.480;2024-01-15T02:34:51;100098.50;;;-0.19;97.80
84746;BME280;74975;51.922;6.480;2024-01-15T02:37:27;100094.44;;;-0.22;97.97
84746;BME280;74975;51.922;6.480;2024-01-15T02:39:59;100093.13;;;-0.26;97.81
84746;BME280;74975;51.922;6.480;2024-01-15T02:42:32;100086.66;;;-0.22;97.53
84746;BME280;74975;51.922;6.480;2024-01-15T02:45:06;100087.78;;;-0.24;97.60
84746;BME280;74975;51.922;6.480;2024-01-15T02:47:38;100090.22;;;-0.23;97.34
84746;BME280;74975;51.922;6.480;2024-01-15T02:50:12;100080.09;;;-0.16;97.42
84746;BME280;74975;51.922;6.480;2024-01-15T02:52:47;100084.44;;;-0.17;97.68
84746;BME280;74975;51.922;6.480;2024-01-15T02:55:21;100081.72;;;-0.15;97.26
84746;BME280;74975;51.922;6.480;2024-01-15T02:57:54;100089.84;;;-0.10;97.43
84746;BME280;74975;51.922;6.480;2024-01-15T03:00:29;100088.22;;;-0.11;97.01
84746;BME280;74975;51.922;6.480;2024-01-15T03:03:03;100092.06;;;-0.15;96.93
84746;BME280;74975;51.922;6.480;2024-01-15T03:05:34;100086.28;;;-0.09;97.30
84746;BME280;74975;51.922;6.480;2024-01-15T03:08:06;100092.13;;;-0.07;97.30
84746;BME280;74975;51.922;6.480;2024-01-15T03:10:40;100095.97;;;-0.11;97.12
84746;BME280;74975;51.922;6.480;2024-01-15T03:13:16;100089.84;;;-0.10;97.26
84746;BME280;74975;51.922;6.480;2024-01-15T03:15:51;100091.38;;;0.00;96.99
84746;BME280;74975;51.922;6.480;2024-01-15T03:18:27;100097.66;;;-0.02;96.74
84746;BME280;74975;51.922;6.480;2024-01-15T03:21:00;100090.16;;;-0.13;96.64
84746;BME280;74975;51.922;6.480;2024-01-15T03:23:33;100099.50;;;-0.12;97.09
84746;BME280;74975;51.922;6.480;2024-01-15T03:26:08;100098.41;;;-0.10;96.98
84746;BME280;74975;51.922;6.480;2024-01-15T03:28:40;100104.03;;;-0.14;96.94
84746;BME280;74975;51.922;6.480;2024-01-15T03:31:12;100098.41;;;-0.10;96.79
84746;BME280;74975;51.922;6.480;2024-01-15T03:33:46;100090.34;;;-0.07;96.68
84746;BME280;74975;51.922;6.480;2024-01-15T03:36:23;100091.47;;;-0.09;96.88
84746;BME280;74975;51.922;6.480;2024-01-15T03:38:55;100090.34;;;-0.07;96.60
84746;BME280;74975;51.922;6.480;2024-01-15T03:41:27;100095.63;;;-0.16;97.42
84746;BME280;74975;51.922;6.480;2024-01-15T03:44:02;100084.44;;;-0.17;96.91
84746;BME280;74975;51.922;6.480;2024-01-15T03:46:33;100090.63;;;-0.10;97.32
84746;BME280;74975;51.922;6.480;2024-01-15T03:49:08;100082.47;;;-0.05;97.38
84746;BME280;74975;51.922;6.480;2024-01-15T03:51:45;100086.53;;;-0.03;97.25
84746;BME280;74975;51.922;6.480;2024-01-15T03:54:16;100083.13;;;-0.03;97.06
84746;BME280;74975;51.922;6.480;2024-01-15T03:56:51;100074.53;;;-0.04;96.28
84746;BME280;74975;51.922;6.480;2024-01-15T03:59:22;100066.94;;;-0.05;96.82
84746;BME280;74975;51.922;6.480;2024-01-15T04:01:54;100072.00;;;0.05;96.03
84746;BME280;74975;51.922;6.480;2024-01-15T04:04:29;100067.78;;;0.04;95.91
84746;BME280;74975;51.922;6.480;2024-01-15T04:07:04;100066.69;;;0.06;95.74
84746;BME280;74975;51.922;6.480;2024-01-15T04:09:40;100063.50;;;0.12;96.00
84746;BME280;74975;51.922;6.480;2024-01-15T04:12:19;100065.25;;;0.12;96.31
84746;BME280;74975;51.922;6.480;2024-01-15T04:14:51;100059.53;;;0.00;96.19
84746;BME280;74975;51.922;6.480;2024-01-15T04:17:23;100060.50;;;-0.01;96.39
84746;BME280;74975;51.922;6.480;2024-01-15T04:19:53;100059.19;;;-0.05;95.92
84746;BME280;74975;51.922;6.480;2024-01-15T04:22:27;100051.63;;;0.02;96.09
84746;BME280;74975;51.922;6.480;2024-01-15T04:25:02;100053.69;;;-0.02;96.42
84746;BME280;74975;51.922;6.480;2024-01-15T04:27:40;100041.22;;;-0.07;96.64
84746;BME280;74975;51.922;6.480;2024-01-15T04:30:12;100038.84;;;0.00;96.36
84746;BME280;74975;51.922;6.480;2024-01-15T04:32:44;100043.59;;;0.13;96.29
84746;BME280;74975;51.922;6.480;2024-01-15T04:35:20;100043.09;;;0.09;96.60
84746;BME280;74975;51.922;6.480;2024-01-15T04:37:51;100044.91;;;0.17;96.40
84746;BME280;74975;51.922;6.480;2024-01-15T04:40:23;100040.75;;;0.24;95.56
84746;BME280;74975;51.922;6.480;2024-01-15T04:42:58;100034.25;;;0.20;95.90
84746;BME280;74975;51.922;6.480;2024-01-15T04:45:33;100033.47;;;0.19;95.95
84746;BME280;74975;51.922;6.480;2024-01-15T04:48:08;100038.66;;;0.27;96.15
84746;BME280;74975;51.922;6.480;2024-01-15T04:50:39;100037.00;;;0.18;96.31
84746;BME280;74975;51.922;6.480;2024-01-15T04:53:14;100028.94;;;0.21;96.39
84746;BME280;74975;51.922;6.480;2024-01-15T04:55:49;100028.94;;;0.21;96.07
84746;BME280;74975;51.922;6.480;2024-01-15T04:58:20;100026.47;;;0.20;96.21
84746;BME280;74975;51.922;6.480;2024-01-15T05:00:57;100027.94;;;0.22;96.12
84746;BME280;74975;51.922;6.480;2024-01-15T05:03:28;100033.19;;;0.30;96.05
84746;BME280;74975;51.922;6.480;2024-01-15T05:06:00;100031.00;;;0.18;96.87
84746;BME280;74975;51.922;6.480;2024-01-15T05:08:32;100024.72;;;0.20;96.08
84746;BME280;74975;51.922;6.480;2024-01-15T05:11:03;100022.22;;;0.11;96.15
84746;BME280;74975;51.922;6.480;2024-01-15T05:13:35;100023.34;;;0.08;96.70
84746;BME280;74975;51.922;6.480;2024-01-15T05:16:12;100023.34;;;0.08;96.23
84746;BME280;74975;51.922;6.480;2024-01-15T05:18:44;100016.56;;;0.07;96.62
84746;BME280;74975;51.922;6.480;2024-01-15T05:21:16;100018.34;;;0.07;96.00
84746;BME280;74975;51.922;6.480;2024-01-15T05:23:47;100016.22;;;0.02;96.48
84746;BME280;74975;51.922;6.480;2024-01-15T05:26:21;100012.34;;;0.06;95.88
84746;BME280;74975;51.922;6.480;2024-01-15T05:28:53;100008.59;;;0.00;95.97
84746;BME280;74975;51.922;6.480;2024-01-15T05:31:27;100009.09;;;0.04;96.10
84746;BME280;74975;51.922;6.480;2024-01-15T05:33:59;100004.22;;;0.01;96.31
84746;BME280;74975;51.922;6.480;2024-01-15T05:36:31;100006.22;;;0.07;96.20
84746;BME280;74975;51.922;6.480;2024-01-15T05:39:06;100003.63;;;0.07;96.23
84746;BME280;74975;51.922;6.480;2024-01-15T05:41:44;100003.94;;;0.04;95.90
84746;BME280;74975;51.922;6.480;2024-01-15T05:44:15;99994.72;;;0.02;96.12
84746;BME280;74975;51.922;6.480;2024-01-15T05:46:49;100001.81;;;-0.01;96.18
84746;BME280;74975;51.922;6.480;2024-01-15T05:49:25;100004.53;;;-0.02;96.82
84746;BME280;74975;51.922;6.480;2024-01-15T05:52:01;100003.13;;;0.04;96.79
84746;BME280;74975;51.922;6.480;2024-01-15T05:54:36;100001.47;;;0.03;96.51
84746;BME280;74975;51.922;6.480;2024-01-15T05:57:10;99981.78;;;0.02;96.96
84746;BME280;74975;51.922;6.480;2024-01-15T05:59:42;99993.88;;;0.01;97.14
84746;BME280;74975;51.922;6.480;2024-01-15T06:02:14;100000.38;;;0.05;96.78
84746;BME280;74975;51.922;6.480;2024-01-15T06:04:45;99996.88;;;0.14;96.71
84746;BME280;74975;51.922;6.480;2024-01-15T06:07:20;100008.38;;;0.20;96.86
84746;BME280;74975;51.922;6.480;2024-01-15T06:09:52;99983.81;;;0.24;96.75
84746;BME280;74975;51.922;6.480;2024-01-15T06:12:28;99996.91;;;0.22;97.11
84746;BME280;74975;51.922;6.480;2024-01-15T06:15:00;100010.94;;;0.20;97.32
84746;BME280;74975;51.922;6.480;2024-01-15T06:17:35;100005.66;;;0.21;96.88
84746;BME280;74975;51.922;6.480;2024-01-15T06:20:11;100004.00;;;0.20;97.92
84746;BME280;74975;51.922;6.480;2024-01-15T06:22:46;100004.66;;;0.22;97.61
84746;BME280;74975;51.922;6.480;2024-01-15T06:25:20;100001.78;;;0.25;97.97
84746;BME280;74975;51.922;6.480;2024-01-15T06:27:55;99999.03;;;0.27;97.25
84746;BME280;74975;51.922;6.480;2024-01-15T06:30:31;100000.34;;;0.31;96.94
84746;BME280;74975;51.922;6.480;2024-01-15T06:33:07;99997.28;;;0.35;97.29
84746;BME280;74975;51.922;6.480;2024-01-15T06:35:41;99991.00;;;0.38;96.55
84746;BME280;74975;51.922;6.480;2024-01-15T06:38:20;99994.41;;;0.38;96.79
84746;BME280;74975;51.922;6.480;2024-01-15T06:40:49;99996.47;;;0.35;97.32
84746;BME280;74975;51.922;6.480;2024-01-15T06:43:20;99993.75;;;0.36;97.08
84746;BME280;74975;51.922;6.480;2024-01-15T06:46:01;99997.47;;;0.34;97.04
84746;BME280;74975;51.922;6.480;2024-01-15T06:48:36;99996.47;;;0.35;97.42
84746;BME280;74975;51.922;6.480;2024-01-15T06:51:07;100011.53;;;0.31;97.51
84746;BME280;74975;51.922;6.480;2024-01-15T06:53:43;100020.75;;;0.34;96.91
84746;BME280;74975;51.922;6.480;2024-01-15T06:56:15;100011.19;;;0.34;97.74
84746;BME280;74975;51.922;6.480;2024-01-15T06:58:49;100010.06;;;0.37;97.58
84746;BME280;74975;51.922;6.480;2024-01-15T07:01:21;100008.00;;;0.40;97.01
84746;BME280;74975;51.922;6.480;2024-01-15T07:03:59;100010.41;;;0.34;97.67
84746;BME280;74975;51.922;6.480;2024-01-15T07:06:30;100009.28;;;0.36;97.39
84746;BME280;74975;51.922;6.480;2024-01-15T07:09:00;100007.66;;;0.35;97.46
84746;BME280;74975;51.922;6.480;2024-01-15T07:11:26;100005.25;;;0.42;97.61
84746;BME280;74975;51.922;6.480;2024-01-15T07:14:02;99998.28;;;0.42;97.60
84746;BME280;74975;51.922;6.480;2024-01-15T07:16:34;100009.63;;;0.41;97.74
84746;BME280;74975;51.922;6.480;2024-01-15T07:19:09;100009.16;;;0.46;97.47
84746;BME280;74975;51.922;6.480;2024-01-15T07:21:45;100005.59;;;0.47;97.83
84746;BME280;74975;51.922;6.480;2024-01-15T07:24:19;100007.69;;;0.51;97.56
84746;BME280;74975;51.922;6.480;2024-01-15T07:26:54;100004.00;;;0.54;97.42
84746;BME280;74975;51.922;6.480;2024-01-15T07:29:26;100006.88;;;0.43;97.33
84746;BME280;74975;51.922;6.480;2024-01-15T07:32:01;100003.47;;;0.42;97.69
84746;BME280;74975;51.922;6.480;2024-01-15T07:34:38;99993.75;;;0.44;97.62
84746;BME280;74975;51.922;6.480;2024-01-15T07:37:10;99997.34;;;0.43;97.42
84746;BME280;74975;51.922;6.480;2024-01-15T07:39:35;99989.34;;;0.37;97.17
84746;BME280;74975;51.922;6.480;2024-01-15T07:48:51;100000.81;;;0.26;97.69
84746;BME280;74975;51.922;6.480;2024-01-15T07:51:27;100012.28;;;0.24;97.96
84746;BME280;74975;51.922;6.480;2024-01-15T07:54:02;99996.75;;;0.24;98.33
84746;BME280;74975;51.922;6.480;2024-01-15T07:56:33;100001.94;;;0.32;98.05
84746;BME280;74975;51.922;6.480;2024-01-15T07:59:08;99998.59;;;0.39;97.96
84746;BME280;74975;51.922;6.480;2024-01-15T08:01:43;99996.34;;;0.36;97.68
84746;BME280;74975;51.922;6.480;2024-01-15T08:04:19;100007.66;;;0.35;97.50
84746;BME280;74975;51.922;6.480;2024-01-15T08:06:51;100003.28;;;0.36;97.62
84746;BME280;74975;51.922;6.480;2024-01-15T08:09:27;99998.94;;;0.36;97.89
84746;BME280;74975;51.922;6.480;2024-01-15T08:12:02;100004.59;;;0.40;97.10
84746;BME280;74975;51.922;6.480;2024-01-15T08:14:33;100003.47;;;0.42;97.64
84746;BME280;74975;51.922;6.480;2024-01-15T08:17:07;100005.75;;;0.45;97.26
84746;BME280;74975;51.922;6.480;2024-01-15T08:19:51;100004.28;;;0.43;97.29
84746;BME280;74975;51.922;6.480;2024-01-15T08:22:22;100001.88;;;0.41;97.91
84746;BME280;74975;51.922;6.480;2024-01-15T08:24:56;100013.81;;;0.42;97.70
84746;BME280;74975;51.922;6.480;2024-01-15T08:27:28;100004.13;;;0.44;97.50
84746;BME280;74975;51.922;6.480;2024-01-15T08:30:04;100008.03;;;0.48;97.36
84746;BME280;74975;51.922;6.480;2024-01-15T08:32:35;100005.75;;;0.45;97.13
84746;BME280;74975;51.922;6.480;2024-01-15T08:35:15;100010.94;;;0.45;97.17
84746;BME280;74975;51.922;6.480;2024-01-15T08:37:46;100002.84;;;0.48;97.08
84746;BME280;74975;51.922;6.480;2024-01-15T08:40:18;100006.22;;;0.49;97.20
84746;BME280;74975;51.922;6.480;2024-01-15T08:42:53;100008.03;;;0.48;97.42
84746;BME280;74975;51.922;6.480;2024-01-15T08:45:25;100010.47;;;0.50;97.44
84746;BME280;74975;51.922;6.480;2024-01-15T08:47:56;100013.69;;;0.52;97.35
84746;BME280;74975;51.922;6.480;2024-01-15T08:50:31;100021.13;;;0.47;97.51
84746;BME280;74975;51.922;6.480;2024-01-15T08:53:03;100020.16;;;0.48;97.56
84746;BME280;74975;51.922;6.480;2024-01-15T08:55:33;100021.94;;;0.47;97.75
84746;BME280;74975;51.922;6.480;2024-01-15T08:58:09;100015.16;;;0.54;97.63
84746;BME280;74975;51.922;6.480;2024-01-15T09:00:43;100016.47;;;0.58;96.91
84746;BME280;74975;51.922;6.480;2024-01-15T09:03:15;100020.03;;;0.57;96.83
84746;BME280;74975;51.922;6.480;2024-01-15T09:05:48;100016.16;;;0.61;96.79
84746;BME280;74975;51.922;6.480;2024-01-15T09:08:22;100004.50;;;0.57;96.56
84746;BME280;74975;51.922;6.480;2024-01-15T09:10:54;100002.38;;;0.53;96.45
84746;BME280;74975;51.922;6.480;2024-01-15T09:13:27;100005.28;;;0.50;96.10
84746;BME280;74975;51.922;6.480;2024-01-15T09:15:58;100012.22;;;0.41;96.94
84746;BME280;74975;51.922;6.480;2024-01-15T09:18:34;100010.88;;;0.37;96.65
84746;BME280;74975;51.922;6.480;2024-01-15T09:21:05;100016.53;;;0.33;96.89
84746;BME280;74975;51.922;6.480;2024-01-15T09:23:40;100012.31;;;0.32;97.00
84746;BME280;74975;51.922;6.480;2024-01-15T09:26:12;100016.88;;;0.38;97.15
84746;BME280;74975;51.922;6.480;2024-01-15T09:28:43;100007.53;;;0.45;97.16
84746;BME280;74975;51.922;6.480;2024-01-15T09:31:14;100013.69;;;0.52;96.62
84746;BME280;74975;51.922;6.480;2024-01-15T09:33:51;100021.00;;;0.56;96.59
84746;BME280;74975;51.922;6.480;2024-01-15T09:36:25;100028.44;;;0.59;96.38
84746;BME280;74975;51.922;6.480;2024-01-15T09:38:58;100026.81;;;0.58;96.32
84746;BME280;74975;51.922;6.480;2024-01-15T09:41:29;100031.34;;;0.56;96.32
84746;BME280;74975;51.922;6.480;2024-01-15T09:44:00;100022.44;;;0.51;96.35
84746;BME280;74975;51.922;6.480;2024-01-15T09:46:33;100026.00;;;0.50;96.68
84746;BME280;74975;51.922;6.480;2024-01-15T09:49:05;100014.50;;;0.52;96.01
84746;BME280;74975;51.922;6.480;2024-01-15T09:51:37;100023.63;;;0.64;96.14
84746;BME280;74975;51.922;6.480;2024-01-15T09:54:10;100022.38;;;0.77;95.68
84746;BME280;74975;51.922;6.480;2024-01-15T09:56:49;100024.03;;;0.94;95.54
84746;BME280;74975;51.922;6.480;2024-01-15T09:59:25;100015.66;;;1.24;94.60
84746;BME280;74975;51.922;6.480;2024-01-15T10:02:08;100022.00;;;1.38;94.47
84746;BME280;74975;51.922;6.480;2024-01-15T10:04:40;100018.56;;;1.13;94.75
84746;BME280;74975;51.922;6.480;2024-01-15T10:07:17;100027.78;;;1.07;94.92
84746;BME280;74975;51.922;6.480;2024-01-15T10:09:50;100024.84;;;1.02;95.06
84746;BME280;74975;51.922;6.480;2024-01-15T10:12:22;100024.72;;;1.12;95.35
84746;BME280;74975;51.922;6.480;2024-01-15T10:14:58;100038.00;;;1.25;94.83
84746;BME280;74975;51.922;6.480;2024-01-15T10:17:36;100028.00;;;1.38;94.28
84746;BME280;74975;51.922;6.480;2024-01-15T10:20:11;100024.41;;;1.47;93.06
84746;BME280;74975;51.922;6.480;2024-01-15T10:22:50;100015.00;;;1.86;92.35
84746;BME280;74975;51.922;6.480;2024-01-15T10:25:29;100009.13;;;1.92;91.55
84746;BME280;74975;51.922;6.480;2024-01-15T10:28:08;100004.63;;;1.78;91.51
84746;BME280;74975;51.922;6.480;2024-01-15T10:30:44;100012.59;;;1.77;92.05
84746;BME280;74975;51.922;6.480;2024-01-15T10:33:21;100015.50;;;1.58;91.90
84746;BME280;74975;51.922;6.480;2024-01-15T10:36:00;100019.25;;;1.55;92.40
84746;BME280;74975;51.922;6.480;2024-01-15T10:38:37;100012.25;;;1.64;91.96
84746;BME280;74975;51.922;6.480;2024-01-15T10:41:11;100018.09;;;1.58;92.88
84746;BME280;74975;51.922;6.480;2024-01-15T10:43:43;100018.28;;;1.48;92.40
84746;BME280;74975;51.922;6.480;2024-01-15T10:46:17;100010.34;;;1.33;92.48
84746;BME280;74975;51.922;6.480;2024-01-15T10:48:54;100019.84;;;1.17;92.71
84746;BME280;74975;51.922;6.480;2024-01-15T10:51:33;100025.38;;;1.22;92.89
84746;BME280;74975;51.922;6.480;2024-01-15T10:54:05;100026.34;;;1.37;92.81
84746;BME280;74975;51.922;6.480;2024-01-15T10:56:40;100018.56;;;1.37;92.61
84746;BME280;74975;51.922;6.480;2024-01-15T10:59:12;100024.41;;;1.47;91.88
84746;BME280;74975;51.922;6.480;2024-01-15T11:01:47;100025.56;;;1.45;92.48
84746;BME280;74975;51.922;6.480;2024-01-15T11:04:20;100040.97;;;1.62;91.79
84746;BME280;74975;51.922;6.480;2024-01-15T11:06:58;100033.19;;;1.38;91.63
84746;BME280;74975;51.922;6.480;2024-01-15T11:09:34;100024.75;;;1.28;91.87
84746;BME280;74975;51.922;6.480;2024-01-15T11:12:13;100022.00;;;1.38;91.30
84746;BME280;74975;51.922;6.480;2024-01-15T11:14:48;100022.16;;;1.36;91.79
84746;BME280;74975;51.922;6.480;2024-01-15T11:17:25;100024.75;;;1.52;92.27
84746;BME280;74975;51.922;6.480;2024-01-15T11:20:05;100024.25;;;1.41;91.28
84746;BME280;74975;51.922;6.480;2024-01-15T11:22:48;100019.06;;;1.57;91.29
84746;BME280;74975;51.922;6.480;2024-01-15T11:25:20;100026.84;;;1.89;91.38
84746;BME280;74975;51.922;6.480;2024-01-15T11:28:00;100009.16;;;1.84;90.66
84746;BME280;74975;51.922;6.480;2024-01-15T11:30:42;100013.06;;;1.72;91.16
84746;BME280;74975;51.922;6.480;2024-01-15T11:33:33;100028.63;;;1.64;92.44
84746;BME280;74975;51.922;6.480;2024-01-15T11:36:05;100019.72;;;1.59;91.68
84746;BME280;74975;51.922;6.480;2024-01-15T11:38:40;100016.63;;;1.63;92.64
84746;BME280;74975;51.922;6.480;2024-01-15T11:41:15;100011.78;;;1.60;92.39
84746;BME280;74975;51.922;6.480;2024-01-15T11:43:50;100002.19;;;1.61;92.07
84746;BME280;74975;51.922;6.480;2024-01-15T11:46:22;100011.78;;;1.44;91.74
84746;BME280;74975;51.922;6.480;2024-01-15T11:49:05;100019.22;;;1.47;92.41
84746;BME280;74975;51.922;6.480;2024-01-15T11:51:42;100006.91;;;1.73;91.02
84746;BME280;74975;51.922;6.480;2024-01-15T11:54:22;100007.22;;;1.86;91.18
84746;BME280;74975;51.922;6.480;2024-01-15T11:56:55;100011.44;;;1.71;92.08
84746;BME280;74975;51.922;6.480;2024-01-15T11:59:38;100008.69;;;1.57;90.92
84746;BME280;74975;51.922;6.480;2024-01-15T12:02:21;100008.00;;;2.03;89.75
84746;BME280;74975;51.922;6.480;2024-01-15T12:05:03;99995.84;;;1.95;89.58
84746;BME280;74975;51.922;6.480;2024-01-15T12:07:43;100003.63;;;2.04;90.75
84746;BME280;74975;51.922;6.480;2024-01-15T12:10:20;100010.56;;;2.11;89.79
84746;BME280;74975;51.922;6.480;2024-01-15T12:12:57;100000.09;;;2.43;89.03
84746;BME280;74975;51.922;6.480;2024-01-15T12:15:30;100006.31;;;2.65;86.04
84746;BME280;74975;51.922;6.480;2024-01-15T12:18:05;100004.13;;;2.46;86.59
84746;BME280;74975;51.922;6.480;2024-01-15T12:20:37;100008.47;;;2.53;87.65
84746;BME280;74975;51.922;6.480;2024-01-15T12:23:15;100013.72;;;2.37;88.35
84746;BME280;74975;51.922;6.480;2024-01-15T12:25:47;100024.31;;;2.20;88.57
84746;BME280;74975;51.922;6.480;2024-01-15T12:28:33;100015.78;;;2.03;88.72
84746;BME280;74975;51.922;6.480;2024-01-15T12:31:05;100029.56;;;2.04;89.58
84746;BME280;74975;51.922;6.480;2024-01-15T12:33:40;100026.47;;;2.00;88.75
84746;BME280;74975;51.922;6.480;2024-01-15T12:36:13;100033.75;;;2.05;88.78
84746;BME280;74975;51.922;6.480;2024-01-15T12:38:51;100036.34;;;2.05;89.27
84746;BME280;74975;51.922;6.480;2024-01-15T12:41:35;100036.03;;;2.08;89.04
84746;BME280;74975;51.922;6.480;2024-01-15T12:44:08;100047.56;;;2.05;89.67
84746;BME280;74975;51.922;6.480;2024-01-15T12:46:44;100049.34;;;2.13;89.34
84746;BME280;74975;51.922;6.480;2024-01-15T12:49:28;100047.56;;;2.13;88.70
84746;BME280;74975;51.922;6.480;2024-01-15T12:52:08;100062.66;;;2.02;90.11
84746;BME280;74975;51.922;6.480;2024-01-15T12:54:43;100060.06;;;1.85;89.54
84746;BME280;74975;51.922;6.480;2024-01-15T12:57:16;100058.44;;;1.68;90.85
84746;BME280;74975;51.922;6.480;2024-01-15T13:00:02;100063.97;;;1.41;92.43
84746;BME280;74975;51.922;6.480;2024-01-15T13:02:37;100071.41;;;1.36;93.03
84746;BME280;74975;51.922;6.480;2024-01-15T13:05:09;100069.94;;;1.42;93.37
84746;BME280;74975;51.922;6.480;2024-01-15T13:07:48;100065.75;;;1.49;92.24
84746;BME280;74975;51.922;6.480;2024-01-15T13:10:24;100057.66;;;1.52;92.08
84746;BME280;74975;51.922;6.480;2024-01-15T13:13:08;100058.63;;;1.59;91.86
84746;BME280;74975;51.922;6.480;2024-01-15T13:15:42;100051.47;;;1.61;91.86
84746;BME280;74975;51.922;6.480;2024-01-15T13:18:16;100045.84;;;1.65;91.53
84746;BME280;74975;51.922;6.480;2024-01-15T13:20:54;100058.47;;;1.76;91.21
84746;BME280;74975;51.922;6.480;2024-01-15T13:23:34;100054.56;;;1.80;91.90
84746;BME280;74975;51.922;6.480;2024-01-15T13:26:09;100076.47;;;1.70;91.51
84746;BME280;74975;51.922;6.480;2024-01-15T13:28:50;100067.22;;;1.59;92.57
84746;BME280;74975;51.922;6.480;2024-01-15T13:31:25;100073.38;;;1.74;91.35
84746;BME280;74975;51.922;6.480;2024-01-15T13:34:02;100069.81;;;1.67;89.61
84746;BME280;74975;51.922;6.480;2024-01-15T13:36:34;100079.38;;;1.67;89.64
84746;BME280;74975;51.922;6.480;2024-01-15T13:39:16;100085.84;;;1.71;89.85
84746;BME280;74975;51.922;6.480;2024-01-15T13:41:54;100093.00;;;1.85;87.71
84746;BME280;74975;51.922;6.480;2024-01-15T13:44:34;100093.00;;;2.01;87.96